createdAt,value
2023-05-09T00:03:08.834Z,1009.622
2023-05-09T00:23:07.809Z,1009.471
2023-05-09T00:43:07.708Z,1009.201
2023-05-09T01:03:08.951Z,1008.957
2023-05-09T01:23:08.020Z,1008.591
2023-05-09T01:43:07.939Z,1008.419
2023-05-09T02:03:08.995Z,1008.386
2023-05-09T02:23:07.970Z,1008.253
2023-05-09T02:43:07.668Z,1008.129
2023-05-09T03:03:09.168Z,1008.08
2023-05-09T03:23:08.094Z,1007.923
2023-05-09T03:43:07.891Z,1007.875
2023-05-09T04:03:09.106Z,1007.687
2023-05-09T04:23:08.112Z,1007.615
2023-05-09T04:43:08.192Z,1007.578
2023-05-09T05:03:09.409Z,1007.487
2023-05-09T05:23:07.228Z,1007.311
2023-05-09T05:43:08.100Z,1007.093
2023-05-09T06:03:09.260Z,1007.06
2023-05-09T06:23:08.112Z,1006.889
2023-05-09T06:43:07.941Z,1006.603
2023-05-09T07:03:09.152Z,1006.451
2023-05-09T07:23:08.154Z,1006.171
2023-05-09T07:43:08.401Z,1005.87
2023-05-09T08:03:08.926Z,1005.731
2023-05-09T08:23:07.825Z,1005.428
2023-05-09T08:43:07.802Z,1005.243
2023-05-09T09:03:09.006Z,1005.067
2023-05-09T09:23:07.783Z,1004.798
2023-05-09T09:43:07.738Z,1004.575
2023-05-09T10:03:08.898Z,1004.277
2023-05-09T10:23:07.992Z,1004.071
2023-05-09T10:43:07.908Z,1003.805
2023-05-09T11:03:09.202Z,1003.494
2023-05-09T11:23:08.103Z,1003.145
2023-05-09T11:43:08.054Z,1002.867
2023-05-09T12:03:09.240Z,1002.724
2023-05-09T12:23:07.286Z,1002.362
2023-05-09T12:43:07.290Z,1002.111
2023-05-09T13:03:08.762Z,1001.871
2023-05-09T13:23:07.644Z,1001.536
2023-05-09T13:43:07.801Z,1001.286
2023-05-09T14:03:08.670Z,1001.135
2023-05-09T14:23:07.535Z,1000.93
2023-05-09T14:43:07.681Z,1000.662
2023-05-09T15:03:08.799Z,1000.51
2023-05-09T15:23:07.898Z,1000.31
2023-05-09T15:43:09.403Z,1000.16
2023-05-09T16:03:08.888Z,1000.095
2023-05-09T16:23:07.841Z,999.926
2023-05-09T16:43:07.910Z,999.572
2023-05-09T17:03:09.176Z,999.589
2023-05-09T17:23:08.068Z,999.541
2023-05-09T17:43:08.109Z,999.523
2023-05-09T18:03:09.360Z,999.474
2023-05-09T18:23:07.408Z,999.349
2023-05-09T18:43:07.483Z,999.357
2023-05-09T19:03:08.569Z,999.358
2023-05-09T19:23:07.598Z,999.477
2023-05-09T19:43:07.843Z,999.427
2023-05-09T20:03:09.285Z,999.398
2023-05-09T20:23:07.253Z,999.378
2023-05-09T20:43:07.253Z,999.162
2023-05-09T21:03:09.680Z,999.253
2023-05-09T21:23:07.556Z,999.069
2023-05-09T21:43:07.596Z,998.821
2023-05-09T22:03:09.449Z,998.764
2023-05-09T22:23:07.312Z,998.623
2023-05-09T22:43:08.061Z,998.589
2023-05-09T23:03:09.213Z,998.377
2023-05-09T23:23:07.068Z,998.178
2023-05-09T23:43:07.796Z,998.008
